Moose, WY

7:29 AM MST on February 07, 2016 (GMT -0700)
Jackson Hole | | Change Station
CLOSE
Current Station
Airport
Location: Jackson,
Elevation: 6450 ft
Nearby Weather Stations

Elev 6450 ft 43.61 °N, 110.74 °W | Updated 34 minutes ago

Partly Cloudy
Partly Cloudy
28 °F
Feels Like 19 °F
N
10
Wind Variable Wind from SW
Gusts 16 mph

Today
High -- | Low -- °F
--% Chance of Precip.
Yesterday
High -- | Low -- °F
Precip. -- in
Pressure 30.40 in
Visibility 10.0 miles
Clouds Few 4600 ft
Mostly Cloudy 7000 ft
Windchill 19 °F
Dew Point 21 °F
Humidity 74%
Rainfall 0.00 in
Snow Depth Not available.
7:32 AM 5:41 PM
Waning Crescent, 1% visible
METAR KJAC 071355Z 22009G14KT 10SM FEW046 BKN070 M02/M06 A3040 RMK AO1
Pressure 30.40 in
Visibility 10.0 miles
Clouds Few 4600 ft
Mostly Cloudy 7000 ft
Windchill 19 °F
Dew Point 21 °F
Humidity 74%
Rainfall 0.00 in
Snow Depth Not available.
7:32 AM 5:41 PM
Waning Crescent, 1% visible
METAR KJAC 071355Z 22009G14KT 10SM FEW046 BKN070 M02/M06 A3040 RMK AO1

10-Day Weather Forecast

Almanac

Astronomy

Feb. 07, 2016 Rise Set
Actual Time
Civil Twilight
Nautical Twilight
Astronomical Twilight
Moon
Length of Visible Light
Length of Day
Tomorrow will be .
, % of the Moon is Illuminated

Today's Extremes

State Highs State Lows

Community

WunderPhotos

Upload Photos

1,891,204 photos uploaded!

WunderBlog® & News

Nearby

Air Quality

  Air Quality AQ Index Pollutant
Not available.

Snow Depth

Station Depth Elevation

Earthquake Activity

City Distance Mag. Time & Date
Minimum magnitude displayed is 2.5.

Coastal Water Temperatures

Place Temperature

Stations

Nearby Weather Stations

Station Location Temp. Windchill Dew Point Humidity Wind Precip. Elev Updated Type
                   

Watches & Warnings

There are currently no watches in effect.